sensor_id;sensor_type;location;lat;lon;timestamp;temperature;humidity
15355;DHT22;7777;52.254;9.618;2023-03-12T00:00:50;2.40;99.90
15355;DHT22;7777;52.254;9.618;2023-03-12T00:03:16;2.40;99.90
15355;DHT22;7777;52.254;9.618;2023-03-12T00:05:43;2.40;99.90
15355;DHT22;7777;52.254;9.618;2023-03-12T00:08:09;2.40;99.90
15355;DHT22;7777;52.254;9.618;2023-03-12T00:10:38;2.40;99.90
15355;DHT22;7777;52.254;9.618;2023-03-12T00:13:04;2.30;99.90
15355;DHT22;7777;52.254;9.618;2023-03-12T00:15:30;2.30;99.90
15355;DHT22;7777;52.254;9.618;2023-03-12T00:17:56;2.30;99.90
15355;DHT22;7777;52.254;9.618;2023-03-12T00:20:22;2.30;99.90
15355;DHT22;7777;52.254;9.618;2023-03-12T00:22:48;2.20;99.90
15355;DHT22;7777;52.254;9.618;2023-03-12T00:25:15;2.20;99.90
15355;DHT22;7777;52.254;9.618;2023-03-12T00:27:41;2.20;99.90
15355;DHT22;7777;52.254;9.618;2023-03-12T00:30:10;2.10;99.90
15355;DHT22;7777;52.254;9.618;2023-03-12T00:32:36;2.10;99.90
15355;DHT22;7777;52.254;9.618;2023-03-12T00:35:03;2.00;99.90
15355;DHT22;7777;52.254;9.618;2023-03-12T00:37:29;1.90;99.90
15355;DHT22;7777;52.254;9.618;2023-03-12T00:39:57;1.90;99.90
15355;DHT22;7777;52.254;9.618;2023-03-12T00:42:23;1.80;99.90
15355;DHT22;7777;52.254;9.618;2023-03-12T00:44:49;1.70;99.90
15355;DHT22;7777;52.254;9.618;2023-03-12T00:47:14;1.60;99.90
15355;DHT22;7777;52.254;9.618;2023-03-12T00:49:40;1.50;99.90
15355;DHT22;7777;52.254;9.618;2023-03-12T00:52:06;1.50;99.90
15355;DHT22;7777;52.254;9.618;2023-03-12T00:54:31;1.50;99.90
15355;DHT22;7777;52.254;9.618;2023-03-12T00:56:57;1.50;99.90
15355;DHT22;7777;52.254;9.618;2023-03-12T00:59:23;1.40;99.90
15355;DHT22;7777;52.254;9.618;2023-03-12T01:01:48;1.50;99.90
15355;DHT22;7777;52.254;9.618;2023-03-12T01:04:14;1.50;99.90
15355;DHT22;7777;52.254;9.618;2023-03-12T01:06:41;1.50;99.90
15355;DHT22;7777;52.254;9.618;2023-03-12T01:09:08;1.50;99.90
15355;DHT22;7777;52.254;9.618;2023-03-12T01:11:35;1.40;99.90
15355;DHT22;7777;52.254;9.618;2023-03-12T01:14:02;1.40;99.90
15355;DHT22;7777;52.254;9.618;2023-03-12T01:16:29;1.40;99.90
15355;DHT22;7777;52.254;9.618;2023-03-12T01:18:59;1.40;99.90
15355;DHT22;7777;52.254;9.618;2023-03-12T01:21:26;1.40;99.90
15355;DHT22;7777;52.254;9.618;2023-03-12T01:23:52;1.30;99.90
15355;DHT22;7777;52.254;9.618;2023-03-12T01:26:18;1.30;99.90
15355;DHT22;7777;52.254;9.618;2023-03-12T01:28:43;1.30;99.90
15355;DHT22;7777;52.254;9.618;2023-03-12T01:31:12;1.30;99.90
15355;DHT22;7777;52.254;9.618;2023-03-12T01:33:39;1.30;99.90
15355;DHT22;7777;52.254;9.618;2023-03-12T01:36:15;1.30;99.90
15355;DHT22;7777;52.254;9.618;2023-03-12T01:38:43;1.30;99.90
15355;DHT22;7777;52.254;9.618;2023-03-12T01:41:09;1.30;99.90
15355;DHT22;7777;52.254;9.618;2023-03-12T01:43:36;1.30;99.90
15355;DHT22;7777;52.254;9.618;2023-03-12T01:46:33;1.30;99.90
15355;DHT22;7777;52.254;9.618;2023-03-12T01:51:42;1.30;99.90
15355;DHT22;7777;52.254;9.618;2023-03-12T01:57:35;1.30;99.90
15355;DHT22;7777;52.254;9.618;2023-03-12T02:00:12;1.30;99.90
15355;DHT22;7777;52.254;9.618;2023-03-12T02:02:44;1.30;99.90
15355;DHT22;7777;52.254;9.618;2023-03-12T02:05:31;1.30;99.90
15355;DHT22;7777;52.254;9.618;2023-03-12T02:08:02;1.30;99.90
15355;DHT22;7777;52.254;9.618;2023-03-12T02:10:28;1.30;99.90
15355;DHT22;7777;52.254;9.618;2023-03-12T02:12:53;1.30;99.90
15355;DHT22;7777;52.254;9.618;2023-03-12T02:15:19;1.30;99.90
15355;DHT22;7777;52.254;9.618;2023-03-12T02:17:45;1.20;99.90
15355;DHT22;7777;52.254;9.618;2023-03-12T02:23:09;1.30;99.90
15355;DHT22;7777;52.254;9.618;2023-03-12T02:25:47;1.30;99.90
15355;DHT22;7777;52.254;9.618;2023-03-12T02:28:17;1.30;99.90
15355;DHT22;7777;52.254;9.618;2023-03-12T02:30:47;1.20;99.90
15355;DHT22;7777;52.254;9.618;2023-03-12T02:33:14;1.20;99.90
15355;DHT22;7777;52.254;9.618;2023-03-12T02:35:41;1.20;99.90
15355;DHT22;7777;52.254;9.618;2023-03-12T02:38:32;1.20;99.90
15355;DHT22;7777;52.254;9.618;2023-03-12T02:41:01;1.20;99.90
15355;DHT22;7777;52.254;9.618;2023-03-12T02:43:30;1.20;99.90
15355;DHT22;7777;52.254;9.618;2023-03-12T02:45:56;1.20;99.90
15355;DHT22;7777;52.254;9.618;2023-03-12T02:48:22;1.20;99.90
15355;DHT22;7777;52.254;9.618;2023-03-12T02:50:48;1.20;99.90
15355;DHT22;7777;52.254;9.618;2023-03-12T02:53:13;1.20;99.90
15355;DHT22;7777;52.254;9.618;2023-03-12T02:55:39;1.20;99.90
15355;DHT22;7777;52.254;9.618;2023-03-12T02:58:05;1.20;99.90
15355;DHT22;7777;52.254;9.618;2023-03-12T03:00:32;1.20;99.90
15355;DHT22;7777;52.254;9.618;2023-03-12T03:03:01;1.20;99.90
15355;DHT22;7777;52.254;9.618;2023-03-12T03:05:27;1.20;99.90
15355;DHT22;7777;52.254;9.618;2023-03-12T03:07:52;1.20;99.90
15355;DHT22;7777;52.254;9.618;2023-03-12T03:10:18;1.20;99.90
15355;DHT22;7777;52.254;9.618;2023-03-12T03:12:44;1.10;99.90
15355;DHT22;7777;52.254;9.618;2023-03-12T03:15:10;1.10;99.90
15355;DHT22;7777;52.254;9.618;2023-03-12T03:17:36;1.10;99.90
15355;DHT22;7777;52.254;9.618;2023-03-12T03:20:04;1.20;99.90
15355;DHT22;7777;52.254;9.618;2023-03-12T03:22:36;1.20;99.90
15355;DHT22;7777;52.254;9.618;2023-03-12T03:25:03;1.10;99.90
15355;DHT22;7777;52.254;9.618;2023-03-12T03:27:29;1.10;99.90
15355;DHT22;7777;52.254;9.618;2023-03-12T03:29:55;1.10;99.90
15355;DHT22;7777;52.254;9.618;2023-03-12T03:32:20;1.10;99.90
15355;DHT22;7777;52.254;9.618;2023-03-12T03:34:46;1.20;99.90
15355;DHT22;7777;52.254;9.618;2023-03-12T03:37:12;1.20;99.90
15355;DHT22;7777;52.254;9.618;2023-03-12T03:39:37;1.20;99.90
15355;DHT22;7777;52.254;9.618;2023-03-12T03:42:03;1.10;99.90
15355;DHT22;7777;52.254;9.618;2023-03-12T03:44:29;1.20;99.90
15355;DHT22;7777;52.254;9.618;2023-03-12T03:46:55;1.20;99.90
15355;DHT22;7777;52.254;9.618;2023-03-12T03:49:21;1.20;99.90
15355;DHT22;7777;52.254;9.618;2023-03-12T03:51:47;1.10;99.90
15355;DHT22;7777;52.254;9.618;2023-03-12T03:54:14;1.20;99.90
15355;DHT22;7777;52.254;9.618;2023-03-12T03:56:40;1.20;99.90
15355;DHT22;7777;52.254;9.618;2023-03-12T03:59:06;1.10;99.90
15355;DHT22;7777;52.254;9.618;2023-03-12T04:01:32;1.10;99.90
15355;DHT22;7777;52.254;9.618;2023-03-12T04:03:58;1.10;99.90
15355;DHT22;7777;52.254;9.618;2023-03-12T04:06:24;1.10;99.90
15355;DHT22;7777;52.254;9.618;2023-03-12T04:08:50;1.20;99.90
15355;DHT22;7777;52.254;9.618;2023-03-12T04:11:18;1.10;99.90
15355;DHT22;7777;52.254;9.618;2023-03-12T04:13:45;1.10;99.90
15355;DHT22;7777;52.254;9.618;2023-03-12T04:16:12;1.10;99.90
15355;DHT22;7777;52.254;9.618;2023-03-12T04:18:38;1.00;99.90
15355;DHT22;7777;52.254;9.618;2023-03-12T04:21:06;1.00;99.90
15355;DHT22;7777;52.254;9.618;2023-03-12T04:23:33;1.00;99.90
15355;DHT22;7777;52.254;9.618;2023-03-12T04:25:58;1.00;99.90
15355;DHT22;7777;52.254;9.618;2023-03-12T04:28:24;1.10;99.90
15355;DHT22;7777;52.254;9.618;2023-03-12T04:30:59;1.00;99.90
15355;DHT22;7777;52.254;9.618;2023-03-12T04:33:30;1.10;99.90
15355;DHT22;7777;52.254;9.618;2023-03-12T04:35:59;1.10;99.90
15355;DHT22;7777;52.254;9.618;2023-03-12T04:38:26;1.10;99.90
15355;DHT22;7777;52.254;9.618;2023-03-12T04:41:09;1.10;99.90
15355;DHT22;7777;52.254;9.618;2023-03-12T04:43:36;1.10;99.90
15355;DHT22;7777;52.254;9.618;2023-03-12T04:46:02;1.10;99.90
15355;DHT22;7777;52.254;9.618;2023-03-12T04:48:28;1.10;99.90
15355;DHT22;7777;52.254;9.618;2023-03-12T04:50:54;1.00;99.90
15355;DHT22;7777;52.254;9.618;2023-03-12T04:53:20;1.00;99.90
15355;DHT22;7777;52.254;9.618;2023-03-12T04:55:46;1.00;99.90
15355;DHT22;7777;52.254;9.618;2023-03-12T04:58:12;0.90;99.90
15355;DHT22;7777;52.254;9.618;2023-03-12T05:00:39;0.90;99.90
15355;DHT22;7777;52.254;9.618;2023-03-12T05:03:06;0.80;99.90
15355;DHT22;7777;52.254;9.618;2023-03-12T05:05:32;0.90;99.90
15355;DHT22;7777;52.254;9.618;2023-03-12T05:07:58;0.90;99.90
15355;DHT22;7777;52.254;9.618;2023-03-12T05:10:24;0.80;99.90
15355;DHT22;7777;52.254;9.618;2023-03-12T05:12:50;0.70;99.90
15355;DHT22;7777;52.254;9.618;2023-03-12T05:15:15;0.80;99.90
15355;DHT22;7777;52.254;9.618;2023-03-12T05:17:42;0.70;99.90
15355;DHT22;7777;52.254;9.618;2023-03-12T05:20:09;0.70;99.90
15355;DHT22;7777;52.254;9.618;2023-03-12T05:22:35;0.70;99.90
15355;DHT22;7777;52.254;9.618;2023-03-12T05:25:02;0.70;99.90
15355;DHT22;7777;52.254;9.618;2023-03-12T05:27:28;0.70;99.90
15355;DHT22;7777;52.254;9.618;2023-03-12T05:29:53;0.70;99.90
15355;DHT22;7777;52.254;9.618;2023-03-12T05:32:19;0.70;99.90
15355;DHT22;7777;52.254;9.618;2023-03-12T05:34:45;0.70;99.90
15355;DHT22;7777;52.254;9.618;2023-03-12T05:37:10;0.70;99.90
15355;DHT22;7777;52.254;9.618;2023-03-12T05:39:36;0.70;99.90
15355;DHT22;7777;52.254;9.618;2023-03-12T05:42:03;0.70;99.90
15355;DHT22;7777;52.254;9.618;2023-03-12T05:44:29;0.70;99.90
15355;DHT22;7777;52.254;9.618;2023-03-12T05:46:54;0.70;99.90
15355;DHT22;7777;52.254;9.618;2023-03-12T05:49:20;0.70;99.90
15355;DHT22;7777;52.254;9.618;2023-03-12T05:51:47;0.70;99.90
15355;DHT22;7777;52.254;9.618;2023-03-12T05:54:15;0.70;99.90
15355;DHT22;7777;52.254;9.618;2023-03-12T05:56:41;0.70;99.90
15355;DHT22;7777;52.254;9.618;2023-03-12T05:59:08;0.70;99.90
15355;DHT22;7777;52.254;9.618;2023-03-12T06:01:35;0.70;99.90
15355;DHT22;7777;52.254;9.618;2023-03-12T06:04:01;0.70;99.90
15355;DHT22;7777;52.254;9.618;2023-03-12T06:06:29;0.60;99.90
15355;DHT22;7777;52.254;9.618;2023-03-12T06:08:55;0.60;99.90
15355;DHT22;7777;52.254;9.618;2023-03-12T06:11:21;0.60;99.90
15355;DHT22;7777;52.254;9.618;2023-03-12T06:13:47;0.60;99.90
15355;DHT22;7777;52.254;9.618;2023-03-12T06:16:19;0.60;99.90
15355;DHT22;7777;52.254;9.618;2023-03-12T06:18:46;0.60;99.90
15355;DHT22;7777;52.254;9.618;2023-03-12T06:21:17;0.60;99.90
15355;DHT22;7777;52.254;9.618;2023-03-12T06:23:45;0.60;99.90
15355;DHT22;7777;52.254;9.618;2023-03-12T06:26:12;0.50;99.90
15355;DHT22;7777;52.254;9.618;2023-03-12T06:28:38;0.50;99.90
15355;DHT22;7777;52.254;9.618;2023-03-12T06:31:04;0.60;99.90
15355;DHT22;7777;52.254;9.618;2023-03-12T06:33:31;0.60;99.90
15355;DHT22;7777;52.254;9.618;2023-03-12T06:35:58;0.60;99.90
15355;DHT22;7777;52.254;9.618;2023-03-12T06:38:25;0.60;99.90
15355;DHT22;7777;52.254;9.618;2023-03-12T06:43:23;0.60;99.90
15355;DHT22;7777;52.254;9.618;2023-03-12T06:45:49;0.60;99.90
15355;DHT22;7777;52.254;9.618;2023-03-12T06:48:15;0.70;99.90
15355;DHT22;7777;52.254;9.618;2023-03-12T06:50:40;0.70;99.90
15355;DHT22;7777;52.254;9.618;2023-03-12T06:53:06;0.80;99.90
15355;DHT22;7777;52.254;9.618;2023-03-12T06:55:32;0.80;99.90
15355;DHT22;7777;52.254;9.618;2023-03-12T06:57:57;0.80;99.90
15355;DHT22;7777;52.254;9.618;2023-03-12T07:00:23;0.80;99.90
15355;DHT22;7777;52.254;9.618;2023-03-12T07:02:49;0.90;99.90
15355;DHT22;7777;52.254;9.618;2023-03-12T07:05:14;1.00;99.90
15355;DHT22;7777;52.254;9.618;2023-03-12T07:07:40;1.00;99.90
15355;DHT22;7777;52.254;9.618;2023-03-12T07:10:06;1.00;99.90
15355;DHT22;7777;52.254;9.618;2023-03-12T07:12:32;1.10;99.90
15355;DHT22;7777;52.254;9.618;2023-03-12T07:14:58;1.20;99.90
15355;DHT22;7777;52.254;9.618;2023-03-12T07:17:24;1.20;99.90
15355;DHT22;7777;52.254;9.618;2023-03-12T07:19:51;1.20;99.90
15355;DHT22;7777;52.254;9.618;2023-03-12T07:22:16;1.30;99.90
15355;DHT22;7777;52.254;9.618;2023-03-12T07:24:42;1.30;99.90
15355;DHT22;7777;52.254;9.618;2023-03-12T07:27:08;1.30;99.90
15355;DHT22;7777;52.254;9.618;2023-03-12T07:29:33;1.40;99.90
15355;DHT22;7777;52.254;9.618;2023-03-12T07:31:59;1.50;99.90
15355;DHT22;7777;52.254;9.618;2023-03-12T07:34:26;1.50;99.90
15355;DHT22;7777;52.254;9.618;2023-03-12T07:36:51;1.60;99.90
15355;DHT22;7777;52.254;9.618;2023-03-12T07:39:17;1.60;99.90
15355;DHT22;7777;52.254;9.618;2023-03-12T07:41:43;1.70;99.90
15355;DHT22;7777;52.254;9.618;2023-03-12T07:44:09;1.80;99.90
15355;DHT22;7777;52.254;9.618;2023-03-12T07:46:35;1.80;99.90
15355;DHT22;7777;52.254;9.618;2023-03-12T07:49:01;1.90;99.90
15355;DHT22;7777;52.254;9.618;2023-03-12T07:51:27;1.90;99.90
15355;DHT22;7777;52.254;9.618;2023-03-12T07:53:53;2.00;99.90
15355;DHT22;7777;52.254;9.618;2023-03-12T07:56:18;2.00;99.90
15355;DHT22;7777;52.254;9.618;2023-03-12T07:58:44;2.10;99.90
15355;DHT22;7777;52.254;9.618;2023-03-12T08:01:10;2.20;99.90
15355;DHT22;7777;52.254;9.618;2023-03-12T08:03:35;2.20;99.90
15355;DHT22;7777;52.254;9.618;2023-03-12T08:06:02;2.30;99.90
15355;DHT22;7777;52.254;9.618;2023-03-12T08:08:29;2.30;99.90
15355;DHT22;7777;52.254;9.618;2023-03-12T08:10:56;2.40;99.90
15355;DHT22;7777;52.254;9.618;2023-03-12T08:13:23;2.40;99.90
15355;DHT22;7777;52.254;9.618;2023-03-12T08:15:50;2.40;99.90
15355;DHT22;7777;52.254;9.618;2023-03-12T08:18:17;2.50;99.90
15355;DHT22;7777;52.254;9.618;2023-03-12T08:20:43;2.50;99.90
15355;DHT22;7777;52.254;9.618;2023-03-12T08:23:09;2.60;99.90
15355;DHT22;7777;52.254;9.618;2023-03-12T08:25:35;2.60;99.90
15355;DHT22;7777;52.254;9.618;2023-03-12T08:28:04;2.70;99.90
15355;DHT22;7777;52.254;9.618;2023-03-12T08:30:30;2.70;99.90
15355;DHT22;7777;52.254;9.618;2023-03-12T08:32:56;2.70;99.90
15355;DHT22;7777;52.254;9.618;2023-03-12T08:35:22;2.70;99.90
15355;DHT22;7777;52.254;9.618;2023-03-12T08:37:48;2.80;99.90
15355;DHT22;7777;52.254;9.618;2023-03-12T08:40:14;2.80;99.90
15355;DHT22;7777;52.254;9.618;2023-03-12T08:42:41;2.80;99.90
15355;DHT22;7777;52.254;9.618;2023-03-12T08:45:08;2.90;99.90
15355;DHT22;7777;52.254;9.618;2023-03-12T08:47:35;2.90;99.90
15355;DHT22;7777;52.254;9.618;2023-03-12T08:50:04;2.90;99.90
15355;DHT22;7777;52.254;9.618;2023-03-12T08:52:30;3.00;99.90
15355;DHT22;7777;52.254;9.618;2023-03-12T08:54:56;3.00;99.90
15355;DHT22;7777;52.254;9.618;2023-03-12T08:57:22;3.00;99.90
15355;DHT22;7777;52.254;9.618;2023-03-12T08:59:47;3.10;99.90
15355;DHT22;7777;52.254;9.618;2023-03-12T09:02:13;3.10;99.90
15355;DHT22;7777;52.254;9.618;2023-03-12T09:04:39;3.10;99.90
15355;DHT22;7777;52.254;9.618;2023-03-12T09:07:04;3.10;99.90
15355;DHT22;7777;52.254;9.618;2023-03-12T09:09:31;3.20;99.90
15355;DHT22;7777;52.254;9.618;2023-03-12T09:11:56;3.20;99.90
15355;DHT22;7777;52.254;9.618;2023-03-12T09:14:22;3.20;99.90
15355;DHT22;7777;52.254;9.618;2023-03-12T09:16:48;3.20;99.90
15355;DHT22;7777;52.254;9.618;2023-03-12T09:19:14;3.20;99.90
15355;DHT22;7777;52.254;9.618;2023-03-12T09:21:40;3.20;99.90
15355;DHT22;7777;52.254;9.618;2023-03-12T09:24:06;3.20;99.90
15355;DHT22;7777;52.254;9.618;2023-03-12T09:26:32;3.20;99.90
15355;DHT22;7777;52.254;9.618;2023-03-12T09:28:58;3.20;99.90
15355;DHT22;7777;52.254;9.618;2023-03-12T09:31:24;3.20;99.90
15355;DHT22;7777;52.254;9.618;2023-03-12T09:33:50;3.20;99.90
15355;DHT22;7777;52.254;9.618;2023-03-12T09:36:16;3.20;99.90
15355;DHT22;7777;52.254;9.618;2023-03-12T09:38:42;3.30;99.90
15355;DHT22;7777;52.254;9.618;2023-03-12T09:41:28;3.30;99.90
15355;DHT22;7777;52.254;9.618;2023-03-12T09:46:32;3.40;99.90
15355;DHT22;7777;52.254;9.618;2023-03-12T09:49:05;3.50;99.90
15355;DHT22;7777;52.254;9.618;2023-03-12T09:51:48;3.50;99.90
15355;DHT22;7777;52.254;9.618;2023-03-12T09:54:43;3.50;99.90
15355;DHT22;7777;52.254;9.618;2023-03-12T09:57:24;3.60;99.90
15355;DHT22;7777;52.254;9.618;2023-03-12T09:59:51;3.60;99.90
15355;DHT22;7777;52.254;9.618;2023-03-12T10:02:34;3.60;99.90
15355;DHT22;7777;52.254;9.618;2023-03-12T10:05:08;3.60;99.90
15355;DHT22;7777;52.254;9.618;2023-03-12T10:07:45;3.70;99.90
15355;DHT22;7777;52.254;9.618;2023-03-12T10:10:22;3.70;99.90
15355;DHT22;7777;52.254;9.618;2023-03-12T10:13:20;3.70;99.90
15355;DHT22;7777;52.254;9.618;2023-03-12T10:25:35;4.00;99.90
15355;DHT22;7777;52.254;9.618;2023-03-12T10:28:41;4.00;99.90
15355;DHT22;7777;52.254;9.618;2023-03-12T10:31:21;4.10;99.90
15355;DHT22;7777;52.254;9.618;2023-03-12T10:33:54;4.20;99.90
15355;DHT22;7777;52.254;9.618;2023-03-12T10:36:26;4.30;99.90
15355;DHT22;7777;52.254;9.618;2023-03-12T10:39:04;4.30;99.90
15355;DHT22;7777;52.254;9.618;2023-03-12T10:41:35;4.30;99.90
15355;DHT22;7777;52.254;9.618;2023-03-12T10:44:06;4.30;99.90
15355;DHT22;7777;52.254;9.618;2023-03-12T10:47:25;4.30;99.90
15355;DHT22;7777;52.254;9.618;2023-03-12T10:49:29;4.30;99.90
15355;DHT22;7777;52.254;9.618;2023-03-12T10:54:43;4.30;99.90
15355;DHT22;7777;52.254;9.618;2023-03-12T10:57:12;4.30;99.90
15355;DHT22;7777;52.254;9.618;2023-03-12T10:59:41;4.30;99.90
15355;DHT22;7777;52.254;9.618;2023-03-12T11:02:31;4.20;99.90
15355;DHT22;7777;52.254;9.618;2023-03-12T11:05:00;4.20;99.90
15355;DHT22;7777;52.254;9.618;2023-03-12T11:07:29;4.20;99.90
15355;DHT22;7777;52.254;9.618;2023-03-12T11:12:33;4.10;99.90
15355;DHT22;7777;52.254;9.618;2023-03-12T11:17:44;4.10;99.90
15355;DHT22;7777;52.254;9.618;2023-03-12T11:20:29;4.10;99.90
15355;DHT22;7777;52.254;9.618;2023-03-12T11:22:55;4.00;99.90
15355;DHT22;7777;52.254;9.618;2023-03-12T11:25:27;4.00;99.90
15355;DHT22;7777;52.254;9.618;2023-03-12T11:27:58;4.00;99.90
15355;DHT22;7777;52.254;9.618;2023-03-12T11:30:39;4.00;99.90
15355;DHT22;7777;52.254;9.618;2023-03-12T11:33:05;4.00;99.90
15355;DHT22;7777;52.254;9.618;2023-03-12T11:35:44;3.90;99.90
15355;DHT22;7777;52.254;9.618;2023-03-12T11:38:33;3.90;99.90
15355;DHT22;7777;52.254;9.618;2023-03-12T11:44:19;4.00;99.90
15355;DHT22;7777;52.254;9.618;2023-03-12T11:50:14;4.10;99.90
15355;DHT22;7777;52.254;9.618;2023-03-12T12:01:13;4.20;99.90
15355;DHT22;7777;52.254;9.618;2023-03-12T12:04:31;4.20;99.90
15355;DHT22;7777;52.254;9.618;2023-03-12T12:13:09;4.30;99.90
15355;DHT22;7777;52.254;9.618;2023-03-12T12:16:01;4.40;99.90
15355;DHT22;7777;52.254;9.618;2023-03-12T12:27:50;4.60;99.90
15355;DHT22;7777;52.254;9.618;2023-03-12T12:35:52;4.70;99.90
15355;DHT22;7777;52.254;9.618;2023-03-12T12:41:22;4.80;99.90
15355;DHT22;7777;52.254;9.618;2023-03-12T12:43:56;4.90;99.90
15355;DHT22;7777;52.254;9.618;2023-03-12T12:46:34;4.90;99.90
15355;DHT22;7777;52.254;9.618;2023-03-12T12:49:14;4.90;99.90
15355;DHT22;7777;52.254;9.618;2023-03-12T12:51:49;4.90;99.90
15355;DHT22;7777;52.254;9.618;2023-03-12T13:00:45;4.90;99.90
15355;DHT22;7777;52.254;9.618;2023-03-12T13:03:18;4.90;99.90
15355;DHT22;7777;52.254;9.618;2023-03-12T13:05:54;4.90;99.90
15355;DHT22;7777;52.254;9.618;2023-03-12T13:13:47;4.80;99.90
15355;DHT22;7777;52.254;9.618;2023-03-12T13:16:18;4.80;99.90
15355;DHT22;7777;52.254;9.618;2023-03-12T13:21:55;4.80;99.90
15355;DHT22;7777;52.254;9.618;2023-03-12T13:27:39;4.70;99.90
15355;DHT22;7777;52.254;9.618;2023-03-12T13:31:06;4.80;99.90
15355;DHT22;7777;52.254;9.618;2023-03-12T13:33:17;4.90;99.90
15355;DHT22;7777;52.254;9.618;2023-03-12T13:38:51;5.10;99.90
15355;DHT22;7777;52.254;9.618;2023-03-12T13:41:32;5.10;99.90
15355;DHT22;7777;52.254;9.618;2023-03-12T13:44:27;5.10;99.90
15355;DHT22;7777;52.254;9.618;2023-03-12T13:47:03;5.10;99.90
15355;DHT22;7777;52.254;9.618;2023-03-12T13:52:27;5.10;99.90
15355;DHT22;7777;52.254;9.618;2023-03-12T13:57:44;5.20;99.90
15355;DHT22;7777;52.254;9.618;2023-03-12T14:02:47;5.10;99.90
15355;DHT22;7777;52.254;9.618;2023-03-12T14:05:18;5.00;99.90
15355;DHT22;7777;52.254;9.618;2023-03-12T14:14:19;5.00;99.90
15355;DHT22;7777;52.254;9.618;2023-03-12T14:17:28;5.00;99.90
15355;DHT22;7777;52.254;9.618;2023-03-12T14:20:03;5.00;99.90
15355;DHT22;7777;52.254;9.618;2023-03-12T14:22:37;5.00;99.90
15355;DHT22;7777;52.254;9.618;2023-03-12T14:25:28;4.90;99.90
15355;DHT22;7777;52.254;9.618;2023-03-12T14:27:58;4.90;99.90
15355;DHT22;7777;52.254;9.618;2023-03-12T14:30:38;4.90;99.90
15355;DHT22;7777;52.254;9.618;2023-03-12T14:33:11;4.90;99.90
15355;DHT22;7777;52.254;9.618;2023-03-12T14:35:43;4.90;99.90
15355;DHT22;7777;52.254;9.618;2023-03-12T14:38:31;4.90;99.90
15355;DHT22;7777;52.254;9.618;2023-03-12T14:41:21;5.00;99.90
15355;DHT22;7777;52.254;9.618;2023-03-12T14:43:52;5.00;99.90
15355;DHT22;7777;52.254;9.618;2023-03-12T14:46:23;5.00;99.90
15355;DHT22;7777;52.254;9.618;2023-03-12T14:48:53;5.00;99.90
15355;DHT22;7777;52.254;9.618;2023-03-12T14:51:29;5.00;99.90
15355;DHT22;7777;52.254;9.618;2023-03-12T14:53:55;5.00;99.90
15355;DHT22;7777;52.254;9.618;2023-03-12T14:56:31;5.00;99.90
15355;DHT22;7777;52.254;9.618;2023-03-12T14:59:19;4.90;99.90
15355;DHT22;7777;52.254;9.618;2023-03-12T15:01:57;4.90;99.90
15355;DHT22;7777;52.254;9.618;2023-03-12T15:04:25;5.00;99.90
15355;DHT22;7777;52.254;9.618;2023-03-12T15:06:58;4.90;99.90
15355;DHT22;7777;52.254;9.618;2023-03-12T15:09:30;4.90;99.90
15355;DHT22;7777;52.254;9.618;2023-03-12T15:12:04;4.90;99.90
15355;DHT22;7777;52.254;9.618;2023-03-12T15:14:34;4.90;99.90
15355;DHT22;7777;52.254;9.618;2023-03-12T15:17:04;4.90;99.90
15355;DHT22;7777;52.254;9.618;2023-03-12T15:19:53;4.90;99.90
15355;DHT22;7777;52.254;9.618;2023-03-12T15:22:23;4.90;99.90
15355;DHT22;7777;52.254;9.618;2023-03-12T15:24:52;4.90;99.90
15355;DHT22;7777;52.254;9.618;2023-03-12T15:29:49;4.90;99.90
15355;DHT22;7777;52.254;9.618;2023-03-12T15:32:17;4.90;99.90
15355;DHT22;7777;52.254;9.618;2023-03-12T15:34:49;4.90;99.90
15355;DHT22;7777;52.254;9.618;2023-03-12T15:37:29;5.00;99.90
15355;DHT22;7777;52.254;9.618;2023-03-12T15:40:05;5.00;99.90
15355;DHT22;7777;52.254;9.618;2023-03-12T15:42:42;5.00;99.90
15355;DHT22;7777;52.254;9.618;2023-03-12T15:45:20;5.00;99.90
15355;DHT22;7777;52.254;9.618;2023-03-12T15:47:52;5.00;99.90
15355;DHT22;7777;52.254;9.618;2023-03-12T15:50:21;5.00;99.90
15355;DHT22;7777;52.254;9.618;2023-03-12T15:55:38;5.10;99.90
15355;DHT22;7777;52.254;9.618;2023-03-12T15:58:25;5.10;99.90
15355;DHT22;7777;52.254;9.618;2023-03-12T16:00:54;5.10;99.90
15355;DHT22;7777;52.254;9.618;2023-03-12T16:03:40;5.10;99.90
15355;DHT22;7777;52.254;9.618;2023-03-12T16:06:12;5.10;99.90
15355;DHT22;7777;52.254;9.618;2023-03-12T16:08:54;5.20;99.90
15355;DHT22;7777;52.254;9.618;2023-03-12T16:11:23;5.20;99.90
15355;DHT22;7777;52.254;9.618;2023-03-12T16:13:57;5.20;99.90
15355;DHT22;7777;52.254;9.618;2023-03-12T16:16:45;5.30;99.90
15355;DHT22;7777;52.254;9.618;2023-03-12T16:19:16;5.30;99.90
15355;DHT22;7777;52.254;9.618;2023-03-12T16:21:43;5.30;99.90
15355;DHT22;7777;52.254;9.618;2023-03-12T16:24:09;5.40;99.90
15355;DHT22;7777;52.254;9.618;2023-03-12T16:26:41;5.40;99.90
15355;DHT22;7777;52.254;9.618;2023-03-12T16:29:35;5.50;99.90
15355;DHT22;7777;52.254;9.618;2023-03-12T16:32:08;5.50;99.90
15355;DHT22;7777;52.254;9.618;2023-03-12T16:34:36;5.50;99.90
15355;DHT22;7777;52.254;9.618;2023-03-12T16:37:02;5.60;99.90
15355;DHT22;7777;52.254;9.618;2023-03-12T16:39:27;5.60;99.90
15355;DHT22;7777;52.254;9.618;2023-03-12T16:41:57;5.60;99.90
15355;DHT22;7777;52.254;9.618;2023-03-12T16:44:27;5.60;99.90
15355;DHT22;7777;52.254;9.618;2023-03-12T16:46:54;5.70;99.90
15355;DHT22;7777;52.254;9.618;2023-03-12T16:49:20;5.70;99.90
15355;DHT22;7777;52.254;9.618;2023-03-12T16:51:46;5.70;99.90
15355;DHT22;7777;52.254;9.618;2023-03-12T16:54:12;5.80;99.90
15355;DHT22;7777;52.254;9.618;2023-03-12T16:56:43;5.80;99.90
15355;DHT22;7777;52.254;9.618;2023-03-12T16:59:25;5.90;99.90
15355;DHT22;7777;52.254;9.618;2023-03-12T17:01:51;5.90;99.90
15355;DHT22;7777;52.254;9.618;2023-03-12T17:04:17;5.90;99.90
15355;DHT22;7777;52.254;9.618;2023-03-12T17:06:42;6.00;99.90
15355;DHT22;7777;52.254;9.618;2023-03-12T17:09:08;6.00;99.90
15355;DHT22;7777;52.254;9.618;2023-03-12T17:11:35;6.10;99.90
15355;DHT22;7777;52.254;9.618;2023-03-12T17:14:09;6.10;99.90
15355;DHT22;7777;52.254;9.618;2023-03-12T17:16:40;6.10;99.90
15355;DHT22;7777;52.254;9.618;2023-03-12T17:19:05;6.10;99.90
15355;DHT22;7777;52.254;9.618;2023-03-12T17:21:31;6.10;99.90
15355;DHT22;7777;52.254;9.618;2023-03-12T17:23:57;6.10;99.90
15355;DHT22;7777;52.254;9.618;2023-03-12T17:26:23;6.20;99.90
15355;DHT22;7777;52.254;9.618;2023-03-12T17:28:48;6.20;99.90
15355;DHT22;7777;52.254;9.618;2023-03-12T17:31:14;6.20;99.90
15355;DHT22;7777;52.254;9.618;2023-03-12T17:33:39;6.20;99.90
15355;DHT22;7777;52.254;9.618;2023-03-12T17:36:08;6.20;99.90
15355;DHT22;7777;52.254;9.618;2023-03-12T17:38:34;6.20;99.90
15355;DHT22;7777;52.254;9.618;2023-03-12T17:41:01;6.20;99.90
15355;DHT22;7777;52.254;9.618;2023-03-12T17:43:27;6.20;99.90
15355;DHT22;7777;52.254;9.618;2023-03-12T17:45:53;6.20;99.90
15355;DHT22;7777;52.254;9.618;2023-03-12T17:48:19;6.20;99.90
15355;DHT22;7777;52.254;9.618;2023-03-12T17:50:48;6.20;99.90
15355;DHT22;7777;52.254;9.618;2023-03-12T17:53:14;6.20;99.90
15355;DHT22;7777;52.254;9.618;2023-03-12T17:55:40;6.20;99.90
15355;DHT22;7777;52.254;9.618;2023-03-12T17:58:06;6.20;99.90
15355;DHT22;7777;52.254;9.618;2023-03-12T18:00:32;6.20;99.90
15355;DHT22;7777;52.254;9.618;2023-03-12T18:02:58;6.20;99.90
15355;DHT22;7777;52.254;9.618;2023-03-12T18:05:24;6.30;99.90
15355;DHT22;7777;52.254;9.618;2023-03-12T18:07:50;6.20;99.90
15355;DHT22;7777;52.254;9.618;2023-03-12T18:10:16;6.20;99.90